sensor_id;sensor_type;location;lat;lon;timestamp;pressure;altitude;pressure_sealevel;temperature;humidity
3250;BME280;1637;42.020;23.992;2023-02-23T00:00:50;92694.81;;;3.15;83.41
3250;BME280;1637;42.020;23.992;2023-02-23T00:03:19;92696.25;;;3.35;82.29
3250;BME280;1637;42.020;23.992;2023-02-23T00:05:46;92695.41;;;3.28;81.64
3250;BME280;1637;42.020;23.992;2023-02-23T00:08:12;92687.31;;;3.17;82.80
3250;BME280;1637;42.020;23.992;2023-02-23T00:10:39;92696.16;;;3.02;82.90
3250;BME280;1637;42.020;23.992;2023-02-23T00:13:06;92695.53;;;2.86;85.42
3250;BME280;1637;42.020;23.992;2023-02-23T00:15:35;92698.75;;;2.75;85.65
3250;BME280;1637;42.020;23.992;2023-02-23T00:18:02;92694.09;;;2.92;84.90
3250;BME280;1637;42.020;23.992;2023-02-23T00:20:31;92692.34;;;3.26;83.41
3250;BME280;1637;42.020;23.992;2023-02-23T00:22:59;92690.56;;;3.07;83.62
3250;BME280;1637;42.020;23.992;2023-02-23T00:25:25;92690.25;;;2.86;84.45
3250;BME280;1637;42.020;23.992;2023-02-23T00:27:55;92701.41;;;2.53;86.74
3250;BME280;1637;42.020;23.992;2023-02-23T00:30:22;92692.09;;;2.17;87.83
3250;BME280;1637;42.020;23.992;2023-02-23T00:32:50;92695.66;;;2.24;88.67
3250;BME280;1637;42.020;23.992;2023-02-23T00:35:18;92680.59;;;1.86;89.32
3250;BME280;1637;42.020;23.992;2023-02-23T00:37:47;92689.66;;;1.66;91.67
3250;BME280;1637;42.020;23.992;2023-02-23T00:40:15;92642.38;;;1.03;92.05
3250;BME280;1637;42.020;23.992;2023-02-23T00:42:43;92691.00;;;1.98;90.31
3250;BME280;1637;42.020;23.992;2023-02-23T00:45:11;92648.00;;;1.98;87.81
3250;BME280;1637;42.020;23.992;2023-02-23T00:47:39;92689.13;;;2.41;86.40
3250;BME280;1637;42.020;23.992;2023-02-23T00:50:08;92684.84;;;2.33;86.70
3250;BME280;1637;42.020;23.992;2023-02-23T00:52:37;92686.00;;;2.35;86.52
3250;BME280;1637;42.020;23.992;2023-02-23T00:55:07;92682.88;;;2.49;86.00
3250;BME280;1637;42.020;23.992;2023-02-23T00:57:34;92687.00;;;2.50;85.53
3250;BME280;1637;42.020;23.992;2023-02-23T01:00:02;92681.44;;;2.55;85.76
3250;BME280;1637;42.020;23.992;2023-02-23T01:02:38;92687.03;;;2.08;88.44
3250;BME280;1637;42.020;23.992;2023-02-23T01:05:07;92675.59;;;2.00;88.43
3250;BME280;1637;42.020;23.992;2023-02-23T01:07:34;92690.03;;;2.06;88.89
3250;BME280;1637;42.020;23.992;2023-02-23T01:10:01;92686.69;;;2.10;88.12
3250;BME280;1637;42.020;23.992;2023-02-23T01:12:33;92686.28;;;2.08;89.50
3250;BME280;1637;42.020;23.992;2023-02-23T01:15:00;92685.53;;;2.07;88.86
3250;BME280;1637;42.020;23.992;2023-02-23T01:17:27;92682.19;;;1.71;91.07
3250;BME280;1637;42.020;23.992;2023-02-23T01:19:56;92685.88;;;2.05;89.30
3250;BME280;1637;42.020;23.992;2023-02-23T01:22:23;92686.13;;;2.20;86.90
3250;BME280;1637;42.020;23.992;2023-02-23T01:24:49;92684.25;;;2.20;86.77
3250;BME280;1637;42.020;23.992;2023-02-23T01:27:16;92682.19;;;2.33;86.73
3250;BME280;1637;42.020;23.992;2023-02-23T01:29:45;92677.22;;;2.28;86.44
3250;BME280;1637;42.020;23.992;2023-02-23T01:32:12;92677.84;;;2.21;86.88
3250;BME280;1637;42.020;23.992;2023-02-23T01:34:39;92682.56;;;2.12;86.79
3250;BME280;1637;42.020;23.992;2023-02-23T01:37:06;92646.94;;;2.02;87.70
3250;BME280;1637;42.020;23.992;2023-02-23T01:39:33;92641.91;;;1.75;88.36
3250;BME280;1637;42.020;23.992;2023-02-23T01:42:00;92677.81;;;1.79;90.06
3250;BME280;1637;42.020;23.992;2023-02-23T01:47:32;92672.38;;;1.91;89.67
3250;BME280;1637;42.020;23.992;2023-02-23T01:49:59;92668.56;;;1.69;89.78
3250;BME280;1637;42.020;23.992;2023-02-23T01:52:26;92674.19;;;1.49;90.83
3250;BME280;1637;42.020;23.992;2023-02-23T01:54:54;92669.91;;;1.60;91.57
3250;BME280;1637;42.020;23.992;2023-02-23T01:57:22;92676.78;;;1.64;90.52
3250;BME280;1637;42.020;23.992;2023-02-23T01:59:51;92679.69;;;1.79;89.75
3250;BME280;1637;42.020;23.992;2023-02-23T02:02:21;92676.06;;;1.48;91.94
3250;BME280;1637;42.020;23.992;2023-02-23T02:04:50;92675.44;;;1.35;92.58
3250;BME280;1637;42.020;23.992;2023-02-23T02:07:22;92643.91;;;1.23;91.68
3250;BME280;1637;42.020;23.992;2023-02-23T02:09:51;92678.84;;;1.55;92.83
3250;BME280;1637;42.020;23.992;2023-02-23T02:12:51;92669.66;;;1.30;94.28
3250;BME280;1637;42.020;23.992;2023-02-23T02:15:21;92680.44;;;1.41;93.21
3250;BME280;1637;42.020;23.992;2023-02-23T02:17:57;92689.59;;;1.47;92.70
3250;BME280;1637;42.020;23.992;2023-02-23T02:23:54;92684.91;;;1.75;90.13
3250;BME280;1637;42.020;23.992;2023-02-23T02:26:42;92689.84;;;1.77;89.88
3250;BME280;1637;42.020;23.992;2023-02-23T02:33:08;92689.22;;;1.45;91.85
3250;BME280;1637;42.020;23.992;2023-02-23T02:38:54;92686.06;;;1.39;90.54
3250;BME280;1637;42.020;23.992;2023-02-23T02:41:33;92677.41;;;1.38;91.87
3250;BME280;1637;42.020;23.992;2023-02-23T02:44:07;92680.84;;;1.23;91.58
3250;BME280;1637;42.020;23.992;2023-02-23T02:46:38;92675.25;;;1.09;92.17
3250;BME280;1637;42.020;23.992;2023-02-23T02:49:12;92703.00;;;0.87;93.86
3250;BME280;1637;42.020;23.992;2023-02-23T02:51:46;92678.53;;;0.87;95.45
3250;BME280;1637;42.020;23.992;2023-02-23T02:54:23;92676.38;;;1.43;90.91
3250;BME280;1637;42.020;23.992;2023-02-23T02:56:52;92674.91;;;1.11;91.02
3250;BME280;1637;42.020;23.992;2023-02-23T02:59:22;92677.97;;;1.13;92.32
3250;BME280;1637;42.020;23.992;2023-02-23T03:02:13;92678.13;;;1.20;92.16
3250;BME280;1637;42.020;23.992;2023-02-23T03:04:58;92682.59;;;1.00;93.66
3250;BME280;1637;42.020;23.992;2023-02-23T03:07:49;92683.13;;;0.74;95.81
3250;BME280;1637;42.020;23.992;2023-02-23T03:10:44;92673.34;;;0.90;95.71
3250;BME280;1637;42.020;23.992;2023-02-23T03:13:36;92675.78;;;0.99;94.38
3250;BME280;1637;42.020;23.992;2023-02-23T03:16:30;92676.09;;;0.78;94.00
3250;BME280;1637;42.020;23.992;2023-02-23T03:19:20;92662.25;;;0.50;96.32
3250;BME280;1637;42.020;23.992;2023-02-23T03:22:20;92680.66;;;0.65;96.51
3250;BME280;1637;42.020;23.992;2023-02-23T03:25:10;92682.88;;;0.79;95.46
3250;BME280;1637;42.020;23.992;2023-02-23T03:28:04;92676.00;;;0.59;97.39
3250;BME280;1637;42.020;23.992;2023-02-23T03:30:57;92678.66;;;0.59;96.13
3250;BME280;1637;42.020;23.992;2023-02-23T03:33:50;92675.69;;;0.60;95.02
3250;BME280;1637;42.020;23.992;2023-02-23T03:36:38;92682.19;;;0.66;95.39
3250;BME280;1637;42.020;23.992;2023-02-23T03:39:29;92686.56;;;0.59;95.18
3250;BME280;1637;42.020;23.992;2023-02-23T03:42:18;92697.44;;;0.57;95.04
3250;BME280;1637;42.020;23.992;2023-02-23T03:45:08;92685.50;;;0.63;95.49
3250;BME280;1637;42.020;23.992;2023-02-23T03:47:54;92682.81;;;0.60;95.87
3250;BME280;1637;42.020;23.992;2023-02-23T03:50:46;92686.56;;;0.59;95.44
3250;BME280;1637;42.020;23.992;2023-02-23T03:53:34;92686.69;;;0.66;94.96
3250;BME280;1637;42.020;23.992;2023-02-23T03:56:26;92670.41;;;0.60;94.36
3250;BME280;1637;42.020;23.992;2023-02-23T03:59:14;92646.25;;;0.43;93.98
3250;BME280;1637;42.020;23.992;2023-02-23T04:02:05;92684.84;;;0.35;96.84
3250;BME280;1637;42.020;23.992;2023-02-23T04:04:53;92686.78;;;0.69;94.81
3250;BME280;1637;42.020;23.992;2023-02-23T04:07:39;92685.19;;;0.49;95.30
3250;BME280;1637;42.020;23.992;2023-02-23T04:10:25;92653.09;;;-0.16;97.59
3250;BME280;1637;42.020;23.992;2023-02-23T04:13:17;92664.81;;;-0.41;100.00
3250;BME280;1637;42.020;23.992;2023-02-23T04:15:48;92686.31;;;0.05;100.00
3250;BME280;1637;42.020;23.992;2023-02-23T04:18:19;92688.19;;;0.04;100.00
3250;BME280;1637;42.020;23.992;2023-02-23T04:20:47;92685.47;;;0.00;100.00
3250;BME280;1637;42.020;23.992;2023-02-23T04:23:14;92687.84;;;-0.10;100.00
3250;BME280;1637;42.020;23.992;2023-02-23T04:25:41;92685.31;;;0.09;100.00
3250;BME280;1637;42.020;23.992;2023-02-23T04:28:08;92688.34;;;0.39;98.00
3250;BME280;1637;42.020;23.992;2023-02-23T04:30:35;92678.81;;;0.50;97.85
3250;BME280;1637;42.020;23.992;2023-02-23T04:33:02;92686.22;;;0.60;97.58
3250;BME280;1637;42.020;23.992;2023-02-23T04:35:30;92684.50;;;0.68;96.81
3250;BME280;1637;42.020;23.992;2023-02-23T04:37:57;92670.88;;;0.66;96.93
3250;BME280;1637;42.020;23.992;2023-02-23T04:40:25;92690.28;;;0.74;96.82
3250;BME280;1637;42.020;23.992;2023-02-23T04:42:52;92684.34;;;0.61;98.10
3250;BME280;1637;42.020;23.992;2023-02-23T04:45:20;92689.41;;;0.22;100.00
3250;BME280;1637;42.020;23.992;2023-02-23T04:47:48;92680.59;;;-0.13;100.00
3250;BME280;1637;42.020;23.992;2023-02-23T04:50:15;92686.19;;;0.29;100.00
3250;BME280;1637;42.020;23.992;2023-02-23T04:52:44;92674.31;;;-0.24;100.00
3250;BME280;1637;42.020;23.992;2023-02-23T04:55:15;92692.75;;;0.19;100.00
3250;BME280;1637;42.020;23.992;2023-02-23T04:57:43;92697.94;;;0.31;97.95
3250;BME280;1637;42.020;23.992;2023-02-23T05:00:10;92696.72;;;0.29;96.87
3250;BME280;1637;42.020;23.992;2023-02-23T05:02:38;92723.75;;;0.42;96.61
3250;BME280;1637;42.020;23.992;2023-02-23T05:05:05;92686.13;;;1.23;100.00
3250;BME280;1637;42.020;23.992;2023-02-23T05:07:33;92691.31;;;0.69;95.81
3250;BME280;1637;42.020;23.992;2023-02-23T05:10:03;92696.75;;;0.60;95.13
3250;BME280;1637;42.020;23.992;2023-02-23T05:12:30;92687.81;;;0.33;96.59
3250;BME280;1637;42.020;23.992;2023-02-23T05:14:57;92697.06;;;0.43;96.37
3250;BME280;1637;42.020;23.992;2023-02-23T05:17:25;92703.88;;;0.28;97.90
3250;BME280;1637;42.020;23.992;2023-02-23T05:19:52;92690.28;;;0.42;96.99
3250;BME280;1637;42.020;23.992;2023-02-23T05:22:19;92698.78;;;0.51;95.74
3250;BME280;1637;42.020;23.992;2023-02-23T05:24:46;92702.53;;;0.50;96.17
3250;BME280;1637;42.020;23.992;2023-02-23T05:27:14;92707.81;;;0.82;96.17
3250;BME280;1637;42.020;23.992;2023-02-23T05:29:42;92706.69;;;0.67;94.21
3250;BME280;1637;42.020;23.992;2023-02-23T05:32:09;92709.06;;;1.03;94.34
3250;BME280;1637;42.020;23.992;2023-02-23T05:34:36;92716.56;;;1.56;90.61
3250;BME280;1637;42.020;23.992;2023-02-23T05:37:03;92724.00;;;2.08;87.17
3250;BME280;1637;42.020;23.992;2023-02-23T05:39:30;92708.06;;;1.82;85.70
3250;BME280;1637;42.020;23.992;2023-02-23T05:41:57;92732.75;;;2.31;84.78
3250;BME280;1637;42.020;23.992;2023-02-23T05:44:25;92709.03;;;2.35;82.98
3250;BME280;1637;42.020;23.992;2023-02-23T05:46:52;92712.03;;;2.56;82.30
3250;BME280;1637;42.020;23.992;2023-02-23T05:49:19;92745.31;;;3.03;82.82
3250;BME280;1637;42.020;23.992;2023-02-23T05:51:47;92751.72;;;3.55;80.50
3250;BME280;1637;42.020;23.992;2023-02-23T05:54:14;92755.03;;;4.04;78.03
3250;BME280;1637;42.020;23.992;2023-02-23T05:56:42;92755.47;;;4.77;73.61
3250;BME280;1637;42.020;23.992;2023-02-23T05:59:09;92756.09;;;5.07;71.53
3250;BME280;1637;42.020;23.992;2023-02-23T06:01:39;92730.47;;;5.26;69.97
3250;BME280;1637;42.020;23.992;2023-02-23T06:04:06;92754.38;;;5.87;68.51
3250;BME280;1637;42.020;23.992;2023-02-23T06:06:33;92771.44;;;6.59;66.37
3250;BME280;1637;42.020;23.992;2023-02-23T06:09:00;92752.81;;;6.66;64.53
3250;BME280;1637;42.020;23.992;2023-02-23T06:11:28;92787.06;;;6.71;64.83
3250;BME280;1637;42.020;23.992;2023-02-23T06:13:56;92788.34;;;7.45;62.51
3250;BME280;1637;42.020;23.992;2023-02-23T06:16:24;92791.28;;;8.11;60.60
3250;BME280;1637;42.020;23.992;2023-02-23T06:18:53;92797.44;;;9.06;58.25
3250;BME280;1637;42.020;23.992;2023-02-23T06:21:20;92788.22;;;8.34;59.43
3250;BME280;1637;42.020;23.992;2023-02-23T06:23:46;92792.78;;;8.37;58.55
3250;BME280;1637;42.020;23.992;2023-02-23T06:26:13;92796.06;;;8.76;58.51
3250;BME280;1637;42.020;23.992;2023-02-23T06:28:40;92798.97;;;9.62;56.91
3250;BME280;1637;42.020;23.992;2023-02-23T06:31:07;92797.06;;;9.04;57.06
3250;BME280;1637;42.020;23.992;2023-02-23T06:33:34;92794.16;;;9.39;56.82
3250;BME280;1637;42.020;23.992;2023-02-23T06:36:02;92799.66;;;10.18;54.69
3250;BME280;1637;42.020;23.992;2023-02-23T06:38:29;92797.19;;;10.38;55.53
3250;BME280;1637;42.020;23.992;2023-02-23T06:40:56;92794.34;;;10.11;55.18
3250;BME280;1637;42.020;23.992;2023-02-23T06:43:23;92799.97;;;9.82;55.03
3250;BME280;1637;42.020;23.992;2023-02-23T06:45:50;92779.03;;;10.15;55.00
3250;BME280;1637;42.020;23.992;2023-02-23T06:48:16;92795.91;;;10.08;55.40
3250;BME280;1637;42.020;23.992;2023-02-23T06:50:43;92802.19;;;10.36;54.85
3250;BME280;1637;42.020;23.992;2023-02-23T06:53:12;92803.59;;;11.08;53.28
3250;BME280;1637;42.020;23.992;2023-02-23T06:55:39;92803.44;;;10.92;53.47
3250;BME280;1637;42.020;23.992;2023-02-23T06:58:05;92802.81;;;11.38;52.65
3250;BME280;1637;42.020;23.992;2023-02-23T07:00:32;92803.31;;;11.56;53.00
3250;BME280;1637;42.020;23.992;2023-02-23T07:02:59;92805.44;;;12.38;50.98
3250;BME280;1637;42.020;23.992;2023-02-23T07:05:26;92804.44;;;12.72;50.18
3250;BME280;1637;42.020;23.992;2023-02-23T07:07:53;92794.78;;;12.74;49.95
3250;BME280;1637;42.020;23.992;2023-02-23T07:10:22;92792.50;;;12.73;50.73
3250;BME280;1637;42.020;23.992;2023-02-23T07:12:49;92802.78;;;13.18;49.41
3250;BME280;1637;42.020;23.992;2023-02-23T07:15:16;92802.16;;;13.30;49.23
3250;BME280;1637;42.020;23.992;2023-02-23T07:17:44;92787.56;;;13.47;49.40
3250;BME280;1637;42.020;23.992;2023-02-23T07:20:13;92797.00;;;13.71;49.12
3250;BME280;1637;42.020;23.992;2023-02-23T07:22:40;92812.88;;;13.82;48.98
3250;BME280;1637;42.020;23.992;2023-02-23T07:25:07;92788.72;;;14.27;47.15
3250;BME280;1637;42.020;23.992;2023-02-23T07:27:36;92782.34;;;13.56;47.90
3250;BME280;1637;42.020;23.992;2023-02-23T07:30:04;92785.84;;;13.53;48.77
3250;BME280;1637;42.020;23.992;2023-02-23T07:32:31;92790.22;;;14.44;47.16
3250;BME280;1637;42.020;23.992;2023-02-23T07:34:58;92802.81;;;13.86;48.07
3250;BME280;1637;42.020;23.992;2023-02-23T07:37:25;92796.94;;;15.36;45.40
3250;BME280;1637;42.020;23.992;2023-02-23T07:39:51;92790.31;;;14.70;46.21
3250;BME280;1637;42.020;23.992;2023-02-23T07:42:18;92784.28;;;14.66;46.32
3250;BME280;1637;42.020;23.992;2023-02-23T07:44:46;92789.44;;;15.02;45.85
3250;BME280;1637;42.020;23.992;2023-02-23T07:47:13;92787.22;;;14.84;46.72
3250;BME280;1637;42.020;23.992;2023-02-23T07:49:40;92782.56;;;15.13;46.06
3250;BME280;1637;42.020;23.992;2023-02-23T07:52:07;92783.34;;;15.52;45.68
3250;BME280;1637;42.020;23.992;2023-02-23T07:54:34;92747.53;;;13.82;48.26
3250;BME280;1637;42.020;23.992;2023-02-23T07:57:00;92775.78;;;14.80;47.73
3250;BME280;1637;42.020;23.992;2023-02-23T07:59:29;92779.50;;;15.78;45.85
3250;BME280;1637;42.020;23.992;2023-02-23T08:01:57;92785.06;;;16.44;43.80
3250;BME280;1637;42.020;23.992;2023-02-23T08:04:25;92782.94;;;16.73;43.59
3250;BME280;1637;42.020;23.992;2023-02-23T08:06:52;92777.16;;;16.15;44.08
3250;BME280;1637;42.020;23.992;2023-02-23T08:09:19;92766.63;;;16.86;42.37
3250;BME280;1637;42.020;23.992;2023-02-23T08:11:46;92758.94;;;17.59;40.94
3250;BME280;1637;42.020;23.992;2023-02-23T08:14:13;92765.41;;;17.00;42.46
3250;BME280;1637;42.020;23.992;2023-02-23T08:16:40;92766.16;;;17.31;41.78
3250;BME280;1637;42.020;23.992;2023-02-23T08:19:08;92760.88;;;17.99;40.55
3250;BME280;1637;42.020;23.992;2023-02-23T08:21:35;92761.38;;;16.82;42.73
3250;BME280;1637;42.020;23.992;2023-02-23T08:24:02;92752.66;;;17.71;41.14
3250;BME280;1637;42.020;23.992;2023-02-23T08:26:29;92755.72;;;18.77;39.15
3250;BME280;1637;42.020;23.992;2023-02-23T08:28:56;92762.97;;;17.95;40.06
3250;BME280;1637;42.020;23.992;2023-02-23T08:31:22;92742.22;;;17.61;40.25
3250;BME280;1637;42.020;23.992;2023-02-23T08:33:52;92753.91;;;17.17;41.75
3250;BME280;1637;42.020;23.992;2023-02-23T08:36:20;92744.22;;;18.18;40.12
3250;BME280;1637;42.020;23.992;2023-02-23T08:38:47;92754.75;;;18.35;39.07
3250;BME280;1637;42.020;23.992;2023-02-23T08:41:14;92753.13;;;18.37;39.31
3250;BME280;1637;42.020;23.992;2023-02-23T08:43:41;92754.97;;;17.91;40.28
3250;BME280;1637;42.020;23.992;2023-02-23T08:46:08;92745.66;;;17.92;40.24
3250;BME280;1637;42.020;23.992;2023-02-23T08:48:35;92748.75;;;19.04;38.20
3250;BME280;1637;42.020;23.992;2023-02-23T08:51:05;92749.84;;;18.88;38.47
3250;BME280;1637;42.020;23.992;2023-02-23T08:53:33;92749.53;;;18.49;39.25
3250;BME280;1637;42.020;23.992;2023-02-23T08:56:02;92742.69;;;18.17;39.65
3250;BME280;1637;42.020;23.992;2023-02-23T08:58:30;92740.78;;;18.73;38.87
3250;BME280;1637;42.020;23.992;2023-02-23T09:00:57;92736.91;;;17.79;41.35
3250;BME280;1637;42.020;23.992;2023-02-23T09:03:24;92748.19;;;19.42;37.30
3250;BME280;1637;42.020;23.992;2023-02-23T09:05:53;92743.00;;;19.71;37.03
3250;BME280;1637;42.020;23.992;2023-02-23T09:08:20;92744.53;;;18.48;39.17
3250;BME280;1637;42.020;23.992;2023-02-23T09:10:49;92740.59;;;19.64;37.20
3250;BME280;1637;42.020;23.992;2023-02-23T09:13:15;92735.97;;;18.68;39.50
3250;BME280;1637;42.020;23.992;2023-02-23T09:15:42;92735.94;;;19.55;37.52
3250;BME280;1637;42.020;23.992;2023-02-23T09:18:11;92728.69;;;19.62;36.89
3250;BME280;1637;42.020;23.992;2023-02-23T09:20:40;92726.25;;;20.20;36.35
3250;BME280;1637;42.020;23.992;2023-02-23T09:23:08;92728.13;;;19.48;37.60
3250;BME280;1637;42.020;23.992;2023-02-23T09:25:38;92731.47;;;19.76;37.42
3250;BME280;1637;42.020;23.992;2023-02-23T09:28:10;92724.66;;;19.48;37.75
3250;BME280;1637;42.020;23.992;2023-02-23T09:30:39;92726.97;;;20.30;34.97
3250;BME280;1637;42.020;23.992;2023-02-23T09:33:06;92723.84;;;20.46;34.46
3250;BME280;1637;42.020;23.992;2023-02-23T09:35:33;92717.16;;;20.00;35.62
3250;BME280;1637;42.020;23.992;2023-02-23T09:38:01;92720.59;;;19.52;34.57
3250;BME280;1637;42.020;23.992;2023-02-23T09:40:34;92717.44;;;19.36;35.74
3250;BME280;1637;42.020;23.992;2023-02-23T09:43:05;92714.31;;;19.70;35.17
3250;BME280;1637;42.020;23.992;2023-02-23T09:45:41;92716.03;;;20.39;34.10
3250;BME280;1637;42.020;23.992;2023-02-23T09:48:13;92712.38;;;19.95;34.61
3250;BME280;1637;42.020;23.992;2023-02-23T09:50:45;92702.84;;;19.66;35.26
3250;BME280;1637;42.020;23.992;2023-02-23T09:53:25;92702.38;;;19.26;36.82
3250;BME280;1637;42.020;23.992;2023-02-23T09:55:55;92700.84;;;20.00;35.90
3250;BME280;1637;42.020;23.992;2023-02-23T09:58:25;92702.19;;;20.28;35.37
3250;BME280;1637;42.020;23.992;2023-02-23T10:01:10;92689.53;;;17.52;39.06
3250;BME280;1637;42.020;23.992;2023-02-23T10:03:49;92684.81;;;18.94;38.02
3250;BME280;1637;42.020;23.992;2023-02-23T10:06:17;92689.47;;;19.02;37.46
3250;BME280;1637;42.020;23.992;2023-02-23T10:08:53;92683.91;;;19.48;37.01
3250;BME280;1637;42.020;23.992;2023-02-23T10:11:26;92683.88;;;19.57;37.13
3250;BME280;1637;42.020;23.992;2023-02-23T10:14:07;92684.47;;;19.61;37.00
3250;BME280;1637;42.020;23.992;2023-02-23T10:16:47;92675.63;;;19.99;35.96
3250;BME280;1637;42.020;23.992;2023-02-23T10:19:21;92680.84;;;19.55;37.35
3250;BME280;1637;42.020;23.992;2023-02-23T10:21:53;92672.16;;;19.75;37.34
3250;BME280;1637;42.020;23.992;2023-02-23T10:24:25;92670.94;;;19.52;37.78
3250;BME280;1637;42.020;23.992;2023-02-23T10:26:55;92662.13;;;19.90;36.79
3250;BME280;1637;42.020;23.992;2023-02-23T10:29:28;92661.88;;;20.03;36.79
3250;BME280;1637;42.020;23.992;2023-02-23T10:32:02;92650.97;;;19.22;37.42
3250;BME280;1637;42.020;23.992;2023-02-23T10:34:31;92658.13;;;19.01;37.95
3250;BME280;1637;42.020;23.992;2023-02-23T10:36:59;92651.19;;;19.00;38.31
3250;BME280;1637;42.020;23.992;2023-02-23T10:39:27;92641.16;;;18.73;38.43
3250;BME280;1637;42.020;23.992;2023-02-23T10:41:56;92640.19;;;18.95;38.44
3250;BME280;1637;42.020;23.992;2023-02-23T10:44:26;92634.19;;;18.91;37.84
3250;BME280;1637;42.020;23.992;2023-02-23T10:46:56;92601.13;;;18.13;38.82
3250;BME280;1637;42.020;23.992;2023-02-23T10:49:28;92633.13;;;18.88;37.89
3250;BME280;1637;42.020;23.992;2023-02-23T10:51:57;92609.34;;;18.74;38.16
3250;BME280;1637;42.020;23.992;2023-02-23T10:54:35;92610.00;;;18.32;39.92
3250;BME280;1637;42.020;23.992;2023-02-23T10:57:03;92611.19;;;18.49;39.68
3250;BME280;1637;42.020;23.992;2023-02-23T10:59:31;92614.81;;;18.46;38.87
3250;BME280;1637;42.020;23.992;2023-02-23T11:02:03;92607.56;;;18.52;38.67
3250;BME280;1637;42.020;23.992;2023-02-23T11:04:49;92603.53;;;18.11;38.82
3250;BME280;1637;42.020;23.992;2023-02-23T11:07:20;92607.59;;;17.89;40.03
3250;BME280;1637;42.020;23.992;2023-02-23T11:09:47;92596.75;;;18.43;39.33
3250;BME280;1637;42.020;23.992;2023-02-23T11:12:17;92598.72;;;18.15;37.69
3250;BME280;1637;42.020;23.992;2023-02-23T11:14:46;92591.22;;;18.01;38.59
3250;BME280;1637;42.020;23.992;2023-02-23T11:17:27;92585.28;;;17.39;39.39
3250;BME280;1637;42.020;23.992;2023-02-23T11:20:05;92595.47;;;17.35;39.51
3250;BME280;1637;42.020;23.992;2023-02-23T11:22:35;92579.16;;;17.07;40.27
3250;BME280;1637;42.020;23.992;2023-02-23T11:25:16;92575.25;;;16.99;41.16
3250;BME280;1637;42.020;23.992;2023-02-23T11:27:47;92557.41;;;16.71;42.01
3250;BME280;1637;42.020;23.992;2023-02-23T11:30:20;92583.69;;;17.10;41.98
3250;BME280;1637;42.020;23.992;2023-02-23T11:32:50;92555.28;;;17.15;42.04
3250;BME280;1637;42.020;23.992;2023-02-23T11:35:28;92567.50;;;17.29;41.66
3250;BME280;1637;42.020;23.992;2023-02-23T11:37:55;92574.56;;;16.86;41.97
3250;BME280;1637;42.020;23.992;2023-02-23T11:40:24;92574.41;;;16.49;43.00
3250;BME280;1637;42.020;23.992;2023-02-23T11:42:54;92565.09;;;16.20;43.68
3250;BME280;1637;42.020;23.992;2023-02-23T11:45:22;92561.88;;;16.43;45.36
3250;BME280;1637;42.020;23.992;2023-02-23T11:47:52;92568.50;;;16.42;43.76
3250;BME280;1637;42.020;23.992;2023-02-23T11:50:27;92545.09;;;15.73;44.41
3250;BME280;1637;42.020;23.992;2023-02-23T11:52:56;92569.75;;;16.19;44.96
3250;BME280;1637;42.020;23.992;2023-02-23T11:55:28;92571.50;;;16.13;44.79
3250;BME280;1637;42.020;23.992;2023-02-23T11:58:07;92579.47;;;16.38;44.37
3250;BME280;1637;42.020;23.992;2023-02-23T12:00:35;92577.34;;;16.42;43.99
3250;BME280;1637;42.020;23.992;2023-02-23T12:03:02;92565.56;;;15.62;45.76
3250;BME280;1637;42.020;23.992;2023-02-23T12:05:32;92575.69;;;15.92;46.25
3250;BME280;1637;42.020;23.992;2023-02-23T12:08:02;92572.16;;;16.26;44.60
3250;BME280;1637;42.020;23.992;2023-02-23T12:10:35;92564.19;;;15.57;46.27
3250;BME280;1637;42.020;23.992;2023-02-23T12:13:11;92563.75;;;15.46;46.54
3250;BME280;1637;42.020;23.992;2023-02-23T12:15:46;92575.31;;;15.81;46.67
3250;BME280;1637;42.020;23.992;2023-02-23T12:18:28;92572.53;;;15.72;45.97
3250;BME280;1637;42.020;23.992;2023-02-23T12:21:07;92567.19;;;15.46;47.27
3250;BME280;1637;42.020;23.992;2023-02-23T12:23:38;92572.66;;;15.34;47.28
3250;BME280;1637;42.020;23.992;2023-02-23T12:26:10;92578.59;;;15.29;47.28
3250;BME280;1637;42.020;23.992;2023-02-23T12:28:46;92584.31;;;15.31;47.69
3250;BME280;1637;42.020;23.992;2023-02-23T12:31:22;92623.22;;;15.42;47.77
3250;BME280;1637;42.020;23.992;2023-02-23T12:33:55;92588.84;;;15.34;47.49
3250;BME280;1637;42.020;23.992;2023-02-23T12:36:26;92590.72;;;15.11;48.06
3250;BME280;1637;42.020;23.992;2023-02-23T12:39:02;92594.19;;;14.87;49.37
3250;BME280;1637;42.020;23.992;2023-02-23T12:41:35;92592.22;;;14.62;49.96
3250;BME280;1637;42.020;23.992;2023-02-23T12:44:07;92596.22;;;14.83;49.75
3250;BME280;1637;42.020;23.992;2023-02-23T12:46:44;92600.41;;;14.58;50.42
3250;BME280;1637;42.020;23.992;2023-02-23T12:49:20;92615.41;;;14.59;51.36
3250;BME280;1637;42.020;23.992;2023-02-23T12:51:54;92615.06;;;14.16;52.60
3250;BME280;1637;42.020;23.992;2023-02-23T12:54:24;92622.31;;;14.19;52.60
3250;BME280;1637;42.020;23.992;2023-02-23T12:57:02;92615.97;;;13.96;53.35
3250;BME280;1637;42.020;23.992;2023-02-23T13:00:05;92616.97;;;14.02;53.60
3250;BME280;1637;42.020;23.992;2023-02-23T13:02:51;92625.44;;;14.59;53.02
3250;BME280;1637;42.020;23.992;2023-02-23T13:05:22;92624.34;;;14.43;53.20
3250;BME280;1637;42.020;23.992;2023-02-23T13:08:02;92634.09;;;14.37;52.51
3250;BME280;1637;42.020;23.992;2023-02-23T13:10:41;92631.94;;;14.32;53.11
3250;BME280;1637;42.020;23.992;2023-02-23T13:13:24;92628.88;;;14.47;52.68
3250;BME280;1637;42.020;23.992;2023-02-23T13:16:00;92628.00;;;14.50;52.76
3250;BME280;1637;42.020;23.992;2023-02-23T13:18:32;92633.59;;;14.42;52.72
3250;BME280;1637;42.020;23.992;2023-02-23T13:21:07;92630.47;;;14.57;51.87
3250;BME280;1637;42.020;23.992;2023-02-23T13:23:44;92626.59;;;14.16;53.32
3250;BME280;1637;42.020;23.992;2023-02-23T13:26:20;92634.47;;;13.82;54.38
3250;BME280;1637;42.020;23.992;2023-02-23T13:28:55;92641.41;;;13.95;54.27
3250;BME280;1637;42.020;23.992;2023-02-23T13:31:26;92641.72;;;13.97;54.52
3250;BME280;1637;42.020;23.992;2023-02-23T13:33:57;92640.69;;;14.07;54.17
3250;BME280;1637;42.020;23.992;2023-02-23T13:36:26;92639.22;;;14.19;54.19
3250;BME280;1637;42.020;23.992;2023-02-23T13:42:07;92645.06;;;13.89;55.54
3250;BME280;1637;42.020;23.992;2023-02-23T13:44:41;92650.91;;;13.38;57.08
3250;BME280;1637;42.020;23.992;2023-02-23T13:47:18;92627.22;;;13.33;57.10
3250;BME280;1637;42.020;23.992;2023-02-23T13:49:51;92646.47;;;13.32;57.78
3250;BME280;1637;42.020;23.992;2023-02-23T13:52:25;92656.81;;;13.17;58.25
3250;BME280;1637;42.020;23.992;2023-02-23T13:54:56;92660.16;;;13.37;57.84